createdAt,value
2023-04-12T00:00:11.702Z,1.92
2023-04-12T00:02:14.339Z,2.00
2023-04-12T00:04:16.831Z,1.88
2023-04-12T00:06:20.911Z,2.08
2023-04-12T00:08:33.051Z,2.10
2023-04-12T00:10:35.332Z,2.17
2023-04-12T00:12:37.568Z,2.28
2023-04-12T00:14:39.750Z,2.05
2023-04-12T00:16:41.935Z,2.40
2023-04-12T00:18:45.835Z,2.08
2023-04-12T00:20:48.030Z,1.98
2023-04-12T00:22:50.383Z,1.88
2023-04-12T00:24:52.720Z,2.20
2023-04-12T00:26:54.972Z,2.28
2023-04-12T00:28:57.115Z,2.00
2023-04-12T00:30:59.296Z,1.80
2023-04-12T00:33:01.567Z,1.75
2023-04-12T00:35:03.756Z,2.05
2023-04-12T00:37:06.066Z,1.90
2023-04-12T00:39:08.989Z,2.10
2023-04-12T00:41:11.134Z,2.00
2023-04-12T00:43:18.404Z,1.85
2023-04-12T00:45:21.421Z,1.88
2023-04-12T00:47:23.678Z,2.00
2023-04-12T00:49:30.640Z,1.95
2023-04-12T00:51:33.739Z,2.15
2023-04-12T00:53:36.325Z,1.90
2023-04-12T00:55:38.595Z,1.50
2023-04-12T00:57:41.095Z,1.45
2023-04-12T00:59:43.265Z,1.83
2023-04-12T01:01:45.506Z,1.85
2023-04-12T01:03:48.569Z,1.70
2023-04-12T01:06:04.898Z,1.90
2023-04-12T01:08:14.996Z,1.60
2023-04-12T01:10:19.934Z,1.85
2023-04-12T01:12:31.335Z,1.70
2023-04-12T01:14:33.506Z,2.35
2023-04-12T01:16:47.846Z,2.00
2023-04-12T01:18:52.186Z,1.67
2023-04-12T01:20:57.701Z,1.75
2023-04-12T01:23:03.694Z,1.90
2023-04-12T01:25:24.471Z,1.60
2023-04-12T01:27:40.642Z,1.40
2023-04-12T01:29:43.161Z,2.05
2023-04-12T01:31:50.658Z,1.80
2023-04-12T01:33:54.056Z,1.90
2023-04-12T01:35:56.341Z,1.90
2023-04-12T01:37:59.689Z,2.00
2023-04-12T01:40:02.212Z,1.60
2023-04-12T01:42:04.408Z,2.00
2023-04-12T01:44:06.644Z,1.52
2023-04-12T01:46:08.885Z,1.95
2023-04-12T01:48:12.345Z,2.28
2023-04-12T01:50:15.070Z,1.60
2023-04-12T01:54:29.246Z,1.90
2023-04-12T01:56:32.489Z,2.20
2023-04-12T01:58:35.053Z,1.95
2023-04-12T02:00:37.596Z,2.03
2023-04-12T02:04:43.060Z,1.98
2023-04-12T02:06:45.977Z,1.60
2023-04-12T02:08:48.429Z,2.38
2023-04-12T02:10:51.331Z,2.30
2023-04-12T02:12:54.418Z,2.00
2023-04-12T02:14:57.190Z,2.00
2023-04-12T02:19:02.090Z,2.40
2023-04-12T02:21:04.383Z,1.80
2023-04-12T02:23:06.817Z,1.98
2023-04-12T02:25:09.008Z,1.55
2023-04-12T02:27:11.580Z,1.90
2023-04-12T02:29:13.787Z,2.03
2023-04-12T02:31:15.999Z,1.75
2023-04-12T02:33:18.347Z,2.38
2023-04-12T02:35:20.654Z,1.88
2023-04-12T02:37:24.342Z,1.73
2023-04-12T02:39:26.483Z,1.95
2023-04-12T02:41:28.660Z,2.33
2023-04-12T02:43:30.858Z,1.73
2023-04-12T02:45:33.009Z,1.88
2023-04-12T02:47:35.336Z,1.90
2023-04-12T02:49:37.507Z,1.85
2023-04-12T02:51:40.387Z,2.00
2023-04-12T02:53:42.615Z,2.00
2023-04-12T02:55:44.986Z,2.05
2023-04-12T02:57:48.572Z,1.67
2023-04-12T02:59:53.748Z,2.05
2023-04-12T03:01:56.169Z,2.20
2023-04-12T03:03:58.689Z,2.50
2023-04-12T03:08:03.417Z,1.80
2023-04-12T03:10:07.268Z,2.25
2023-04-12T03:12:09.583Z,1.83
2023-04-12T03:14:11.694Z,1.88
2023-04-12T03:16:21.777Z,1.90
2023-04-12T03:18:24.185Z,1.80
2023-04-12T03:20:28.404Z,1.70
2023-04-12T03:22:31.160Z,1.95
2023-04-12T03:26:39.395Z,1.80
2023-04-12T03:28:42.907Z,1.98
2023-04-12T03:30:45.972Z,1.85
2023-04-12T03:32:48.300Z,1.70
2023-04-12T03:34:51.040Z,2.03
2023-04-12T03:38:55.350Z,2.13
2023-04-12T03:40:57.507Z,2.03
2023-04-12T03:43:01.887Z,2.22
2023-04-12T03:45:04.617Z,1.98
2023-04-12T03:47:06.805Z,2.53
2023-04-12T03:49:09.008Z,2.58
2023-04-12T03:51:12.198Z,2.50
2023-04-12T03:53:14.747Z,3.05
2023-04-12T03:55:18.465Z,2.47
2023-04-12T03:57:20.884Z,2.45
2023-04-12T03:59:23.169Z,2.70
2023-04-12T04:01:25.434Z,2.63
2023-04-12T04:03:29.837Z,2.13
2023-04-12T04:05:32.407Z,2.47
2023-04-12T04:07:34.781Z,2.13
2023-04-12T04:09:36.938Z,2.13
2023-04-12T04:11:39.119Z,2.45
2023-04-12T04:13:41.329Z,2.10
2023-04-12T04:15:43.514Z,2.00
2023-04-12T04:17:47.519Z,1.92
2023-04-12T04:19:49.892Z,2.25
2023-04-12T04:21:52.030Z,2.25
2023-04-12T04:23:54.260Z,2.78
2023-04-12T04:25:56.451Z,2.30
2023-04-12T04:27:59.696Z,2.22
2023-04-12T04:30:02.604Z,2.05
2023-04-12T04:32:04.885Z,2.10
2023-04-12T04:34:07.505Z,1.88
2023-04-12T04:36:10.022Z,1.88
2023-04-12T04:38:12.195Z,2.47
2023-04-12T04:40:15.293Z,2.15
2023-04-12T04:42:17.527Z,2.08
2023-04-12T04:44:19.708Z,2.35
2023-04-12T04:46:22.125Z,2.20
2023-04-12T04:48:24.890Z,2.25
2023-04-12T04:54:33.155Z,2.22
2023-04-12T04:56:35.375Z,1.98
2023-04-12T04:58:37.558Z,2.70
2023-04-12T05:00:39.705Z,2.22
2023-04-12T05:02:45.779Z,2.65
2023-04-12T05:04:48.167Z,2.90
2023-04-12T05:06:50.623Z,2.83
2023-04-12T05:08:52.966Z,2.97
2023-04-12T05:10:56.290Z,2.50
2023-04-12T05:12:58.476Z,2.58
2023-04-12T05:15:11.102Z,3.08
2023-04-12T05:17:14.312Z,2.72
2023-04-12T05:19:16.443Z,3.35
2023-04-12T05:21:18.603Z,2.60
2023-04-12T05:23:21.021Z,2.70
2023-04-12T05:27:26.467Z,2.55
2023-04-12T05:29:28.668Z,2.30
2023-04-12T05:31:31.206Z,2.50
2023-04-12T05:37:38.987Z,2.13
2023-04-12T05:39:41.146Z,2.50
2023-04-12T05:41:43.263Z,3.08
2023-04-12T05:43:45.475Z,2.30
2023-04-12T05:45:47.732Z,2.53
2023-04-12T05:47:49.937Z,2.75
2023-04-12T05:49:52.109Z,2.83
2023-04-12T05:51:54.244Z,2.60
2023-04-12T05:53:56.373Z,2.40
2023-04-12T05:55:58.878Z,2.22
2023-04-12T05:58:01.199Z,2.58
2023-04-12T06:00:07.104Z,2.50
2023-04-12T06:02:10.447Z,2.55
2023-04-12T06:04:13.095Z,3.17
2023-04-12T06:08:17.674Z,2.28
2023-04-12T06:10:19.896Z,2.88
2023-04-12T06:12:22.057Z,2.65
2023-04-12T06:14:26.683Z,2.78
2023-04-12T06:16:29.002Z,2.70
2023-04-12T06:18:31.455Z,2.50
2023-04-12T06:20:33.760Z,2.30
2023-04-12T06:22:36.308Z,2.65
2023-04-12T06:24:38.479Z,2.85
2023-04-12T06:26:43.146Z,2.40
2023-04-12T06:28:45.282Z,2.25
2023-04-12T06:30:47.397Z,2.22
2023-04-12T06:32:49.596Z,2.28
2023-04-12T06:34:51.979Z,2.28
2023-04-12T06:36:54.135Z,2.47
2023-04-12T06:38:56.743Z,2.65
2023-04-12T06:40:59.049Z,1.90
2023-04-12T06:43:01.435Z,2.60
2023-04-12T06:45:03.836Z,2.72
2023-04-12T06:47:06.110Z,2.40
2023-04-12T06:49:08.781Z,2.42
2023-04-12T06:51:11.545Z,2.78
2023-04-12T06:53:13.944Z,2.78
2023-04-12T06:55:16.354Z,3.33
2023-04-12T06:57:18.563Z,2.90
2023-04-12T06:59:21.351Z,2.55
2023-04-12T07:03:28.409Z,2.50
2023-04-12T07:05:30.627Z,2.50
2023-04-12T07:07:32.845Z,2.53
2023-04-12T07:09:35.205Z,2.20
2023-04-12T07:11:37.475Z,2.60
2023-04-12T07:13:39.651Z,2.97
2023-04-12T07:15:41.821Z,3.20
2023-04-12T07:17:44.011Z,2.60
2023-04-12T07:19:46.175Z,2.53
2023-04-12T07:21:48.360Z,2.42
2023-04-12T07:23:51.312Z,2.85
2023-04-12T07:25:53.502Z,2.25
2023-04-12T07:27:55.771Z,2.08
2023-04-12T07:29:58.878Z,2.22
2023-04-12T07:32:01.174Z,2.00
2023-04-12T07:34:03.505Z,2.55
2023-04-12T07:36:06.408Z,2.20
2023-04-12T07:40:10.706Z,2.15
2023-04-12T07:42:12.882Z,2.13
2023-04-12T07:44:15.124Z,2.70
2023-04-12T07:46:17.413Z,2.67
2023-04-12T07:48:19.616Z,2.08
2023-04-12T07:50:21.817Z,2.08
2023-04-12T07:52:24.051Z,2.55
2023-04-12T07:54:28.931Z,2.92
2023-04-12T07:56:31.270Z,2.58
2023-04-12T07:58:34.015Z,3.17
2023-04-12T08:02:38.398Z,2.50
2023-04-12T08:04:44.354Z,2.42
2023-04-12T08:06:46.562Z,2.70
2023-04-12T08:08:48.769Z,2.78
2023-04-12T08:10:52.054Z,2.35
2023-04-12T08:12:54.338Z,2.33
2023-04-12T08:14:56.534Z,2.78
2023-04-12T08:16:58.704Z,2.80
2023-04-12T08:19:00.990Z,2.40
2023-04-12T08:21:03.158Z,2.72
2023-04-12T08:23:05.362Z,2.42
2023-04-12T08:25:08.677Z,2.15
2023-04-12T08:27:13.847Z,1.92
2023-04-12T08:29:16.027Z,2.65
2023-04-12T08:31:18.428Z,2.53
2023-04-12T08:33:20.768Z,2.33
2023-04-12T08:35:23.266Z,2.50
2023-04-12T08:37:25.491Z,2.20
2023-04-12T08:39:27.661Z,2.60
2023-04-12T08:41:29.936Z,2.42
2023-04-12T08:43:33.178Z,2.50
2023-04-12T08:45:36.617Z,2.47
2023-04-12T08:47:40.021Z,2.15
2023-04-12T08:49:42.225Z,2.83
2023-04-12T08:51:44.858Z,2.33
2023-04-12T08:55:49.121Z,2.60
2023-04-12T08:57:53.693Z,2.58
2023-04-12T08:59:56.353Z,2.58
2023-04-12T09:01:59.343Z,2.72
2023-04-12T09:04:07.036Z,2.50
2023-04-12T09:06:09.480Z,2.22
2023-04-12T09:08:12.376Z,2.83
2023-04-12T09:10:31.027Z,2.38
2023-04-12T09:12:33.327Z,2.10
2023-04-12T09:14:35.507Z,2.40
2023-04-12T09:16:38.750Z,2.58
2023-04-12T09:18:51.232Z,2.10
2023-04-12T09:21:07.060Z,2.33
2023-04-12T09:23:18.168Z,2.05
2023-04-12T09:25:35.809Z,2.40
2023-04-12T09:27:47.993Z,1.80
2023-04-12T09:29:51.610Z,2.55
2023-04-12T09:32:02.473Z,2.08
2023-04-12T09:34:08.878Z,2.60
2023-04-12T09:36:14.431Z,2.53
2023-04-12T09:38:17.218Z,2.55
2023-04-12T09:40:25.620Z,2.67
2023-04-12T09:42:33.355Z,2.67
2023-04-12T09:44:36.976Z,2.72
2023-04-12T09:46:50.812Z,2.30
2023-04-12T09:48:54.228Z,2.30
2023-04-12T09:51:00.356Z,3.17
2023-04-12T09:53:03.933Z,2.53
2023-04-12T09:55:09.705Z,2.50
2023-04-12T09:57:12.479Z,2.20
2023-04-12T10:01:19.081Z,2.42
2023-04-12T10:03:21.472Z,2.63
2023-04-12T10:05:28.336Z,2.60
2023-04-12T10:07:31.166Z,2.30
2023-04-12T10:09:34.429Z,1.88
2023-04-12T10:11:40.520Z,2.00
2023-04-12T10:13:43.212Z,2.30
2023-04-12T10:15:46.870Z,2.20
2023-04-12T10:17:52.892Z,1.95
2023-04-12T10:19:55.323Z,1.60
2023-04-12T10:21:58.124Z,1.83
2023-04-12T10:26:04.471Z,1.98
2023-04-12T10:28:16.142Z,1.60
2023-04-12T10:30:22.553Z,1.70
2023-04-12T10:32:26.114Z,1.17
2023-04-12T10:34:28.914Z,1.48
2023-04-12T10:38:45.791Z,1.63
2023-04-12T10:41:06.773Z,1.63
2023-04-12T10:43:24.068Z,1.70
2023-04-12T10:45:26.209Z,1.30
2023-04-12T10:47:47.369Z,1.20
2023-04-12T10:50:08.285Z,1.38
2023-04-12T10:52:10.822Z,1.17
2023-04-12T10:54:18.887Z,1.50
2023-04-12T10:56:32.030Z,1.25
2023-04-12T10:58:49.812Z,1.20
2023-04-12T11:00:58.682Z,1.50
2023-04-12T11:03:06.102Z,1.35
2023-04-12T11:05:09.704Z,1.70
2023-04-12T11:07:12.550Z,1.30
2023-04-12T11:09:17.843Z,1.40
2023-04-12T11:11:22.772Z,1.65
2023-04-12T11:13:27.062Z,1.50
2023-04-12T11:15:34.272Z,1.23
2023-04-12T11:17:37.934Z,1.40
2023-04-12T11:19:43.324Z,1.50
2023-04-12T11:21:45.551Z,1.48
2023-04-12T11:23:48.580Z,1.67
2023-04-12T11:25:52.988Z,1.27
2023-04-12T11:27:56.360Z,1.55
2023-04-12T11:29:59.617Z,1.60
2023-04-12T11:32:05.891Z,1.30
2023-04-12T11:34:08.077Z,1.67
2023-04-12T11:36:12.774Z,1.40
2023-04-12T11:38:15.019Z,1.30
2023-04-12T11:40:17.181Z,1.27
2023-04-12T11:42:20.689Z,1.10
2023-04-12T11:44:23.375Z,1.00
2023-04-12T11:46:27.519Z,1.25
2023-04-12T11:48:30.083Z,1.05
2023-04-12T11:50:32.554Z,0.90
2023-04-12T11:52:35.066Z,0.80
2023-04-12T11:54:37.260Z,1.15
2023-04-12T11:56:39.887Z,1.00
2023-04-12T11:58:42.035Z,1.00
2023-04-12T12:00:47.288Z,1.00
2023-04-12T12:03:04.452Z,0.93
2023-04-12T12:05:09.556Z,1.00
2023-04-12T12:07:13.302Z,1.33
2023-04-12T12:09:15.713Z,1.00
2023-04-12T12:11:19.168Z,1.05
2023-04-12T12:13:21.323Z,1.42
2023-04-12T12:15:23.464Z,1.25
2023-04-12T12:17:28.085Z,1.67
2023-04-12T12:19:30.403Z,1.60
2023-04-12T12:21:32.608Z,1.35
2023-04-12T12:23:35.558Z,1.02
2023-04-12T12:25:37.810Z,1.10
2023-04-12T12:27:48.014Z,1.27
2023-04-12T12:29:51.317Z,1.00
2023-04-12T12:31:54.007Z,1.00
2023-04-12T12:35:59.650Z,1.02
2023-04-12T12:38:03.144Z,1.13
2023-04-12T12:40:16.719Z,0.95
2023-04-12T12:42:18.906Z,1.27
2023-04-12T12:44:21.073Z,1.10
2023-04-12T12:46:23.281Z,0.98
2023-04-12T12:48:25.608Z,0.93
2023-04-12T12:50:29.006Z,0.88
2023-04-12T12:52:31.190Z,1.20
2023-04-12T12:54:41.142Z,1.00
2023-04-12T12:56:44.751Z,1.13
2023-04-12T12:58:47.019Z,1.23
2023-04-12T13:00:54.986Z,1.05
2023-04-12T13:02:58.933Z,1.08
2023-04-12T13:05:03.219Z,1.20
2023-04-12T13:07:05.492Z,1.08
2023-04-12T13:09:07.787Z,1.20
2023-04-12T13:11:09.971Z,1.20
2023-04-12T13:13:12.187Z,1.20
2023-04-12T13:17:19.375Z,1.10
2023-04-12T13:19:21.538Z,1.10
2023-04-12T13:21:23.721Z,1.38
2023-04-12T13:23:25.919Z,1.23
2023-04-12T13:25:28.138Z,1.02
2023-04-12T13:27:30.294Z,1.30
2023-04-12T13:29:32.682Z,1.10
2023-04-12T13:31:34.910Z,1.13
2023-04-12T13:33:37.116Z,1.30
2023-04-12T13:35:39.268Z,1.10
2023-04-12T13:37:41.997Z,1.40
2023-04-12T13:41:46.907Z,1.50
2023-04-12T13:43:49.031Z,1.13
2023-04-12T13:45:51.250Z,1.35
2023-04-12T13:47:53.411Z,1.10
2023-04-12T13:49:55.530Z,1.15
2023-04-12T13:51:57.671Z,1.13
2023-04-12T13:53:59.891Z,1.10
2023-04-12T13:56:02.045Z,1.25
2023-04-12T13:58:04.270Z,1.05
2023-04-12T14:00:06.924Z,1.15
2023-04-12T14:02:09.278Z,0.90
2023-04-12T14:04:11.677Z,1.17
2023-04-12T14:06:13.896Z,1.00
2023-04-12T14:08:16.027Z,0.80
2023-04-12T14:10:18.223Z,1.00
2023-04-12T14:12:20.511Z,0.90
2023-04-12T14:14:23.269Z,1.00
2023-04-12T14:18:27.653Z,1.00
2023-04-12T14:20:29.889Z,1.00
2023-04-12T14:22:32.044Z,1.15
2023-04-12T14:24:34.194Z,1.23
2023-04-12T14:26:36.522Z,1.08
2023-04-12T14:28:38.759Z,1.33
2023-04-12T14:30:42.142Z,1.70
2023-04-12T14:32:45.963Z,1.00
2023-04-12T14:34:49.555Z,0.95
2023-04-12T14:36:51.702Z,0.90
2023-04-12T14:38:54.209Z,1.13
2023-04-12T14:40:56.549Z,1.08
2023-04-12T14:42:58.780Z,0.88
2023-04-12T14:45:01.948Z,1.10
2023-04-12T14:47:04.150Z,0.93
2023-04-12T14:49:07.047Z,0.80
2023-04-12T14:51:09.367Z,0.88
2023-04-12T14:53:13.786Z,1.02
2023-04-12T14:55:17.842Z,1.13
2023-04-12T14:57:20.050Z,0.98
2023-04-12T14:59:22.401Z,0.80
2023-04-12T15:01:25.447Z,0.80
2023-04-12T15:03:30.563Z,1.00
2023-04-12T15:05:32.964Z,0.95
2023-04-12T15:07:35.481Z,1.08
2023-04-12T15:09:37.603Z,1.27
2023-04-12T15:11:46.207Z,1.13
2023-04-12T15:13:49.844Z,1.00
2023-04-12T15:15:52.117Z,0.93
2023-04-12T15:17:54.468Z,1.00
2023-04-12T15:19:57.746Z,1.20
2023-04-12T15:22:00.772Z,1.08
2023-04-12T15:24:03.077Z,1.10
2023-04-12T15:26:07.674Z,0.77
2023-04-12T15:28:09.935Z,0.93
2023-04-12T15:30:15.539Z,0.93
2023-04-12T15:32:18.113Z,1.10
2023-04-12T15:34:20.442Z,1.23
2023-04-12T15:36:22.684Z,1.30
2023-04-12T15:38:25.842Z,1.05
2023-04-12T15:40:28.032Z,1.00
2023-04-12T15:42:30.492Z,1.00
2023-04-12T15:44:32.615Z,1.20
2023-04-12T15:46:35.066Z,1.00
2023-04-12T15:48:38.920Z,1.27
2023-04-12T15:50:41.743Z,1.30
2023-04-12T15:54:46.423Z,0.87
2023-04-12T15:56:48.722Z,1.13
2023-04-12T15:58:51.625Z,1.30
2023-04-12T16:00:54.278Z,1.00
2023-04-12T16:02:57.327Z,1.20
2023-04-12T16:05:00.602Z,1.60
2023-04-12T16:07:04.596Z,1.10
2023-04-12T16:09:06.861Z,1.52
2023-04-12T16:11:12.143Z,1.42
2023-04-12T16:13:14.628Z,1.90
2023-04-12T16:15:18.128Z,2.05
2023-04-12T16:17:20.937Z,1.63
2023-04-12T16:21:26.523Z,1.40
2023-04-12T16:23:29.377Z,1.50
2023-04-12T16:27:33.880Z,1.23
2023-04-12T16:29:36.152Z,1.90
2023-04-12T16:31:38.909Z,1.70
2023-04-12T16:35:45.528Z,1.60
2023-04-12T16:37:48.017Z,1.48
2023-04-12T16:39:51.358Z,2.33
2023-04-12T16:41:53.514Z,2.10
2023-04-12T16:43:57.787Z,2.22
2023-04-12T16:46:04.983Z,1.60
2023-04-12T16:48:07.345Z,1.90
2023-04-12T16:50:09.831Z,1.83
2023-04-12T16:52:12.220Z,1.73
2023-04-12T16:54:14.724Z,2.03
2023-04-12T16:56:17.374Z,2.63
2023-04-12T16:58:20.336Z,2.50
2023-04-12T17:00:23.878Z,2.05
2023-04-12T17:02:26.927Z,1.95
2023-04-12T17:04:29.631Z,2.40
2023-04-12T17:06:34.055Z,2.20
2023-04-12T17:08:37.351Z,2.28
2023-04-12T17:10:39.671Z,2.65
2023-04-12T17:12:42.220Z,2.67
2023-04-12T17:14:45.691Z,2.63
2023-04-12T17:16:47.890Z,2.00
2023-04-12T17:18:50.202Z,2.85
2023-04-12T17:20:52.458Z,1.83
2023-04-12T17:22:55.429Z,1.67
2023-04-12T17:24:57.676Z,1.40
2023-04-12T17:27:00.944Z,1.60
2023-04-12T17:29:03.648Z,1.65
2023-04-12T17:31:06.182Z,1.45
2023-04-12T17:33:08.465Z,1.58
2023-04-12T17:35:11.003Z,1.60
2023-04-12T17:37:13.417Z,1.73
2023-04-12T17:39:16.389Z,1.88
2023-04-12T17:41:18.666Z,1.20
2023-04-12T17:43:21.013Z,1.27
2023-04-12T17:45:24.112Z,1.33
2023-04-12T17:47:26.455Z,1.65
2023-04-12T17:49:28.707Z,2.00
2023-04-12T17:51:32.261Z,1.50
2023-04-12T17:53:34.526Z,1.42
2023-04-12T17:55:37.368Z,1.27
2023-04-12T17:59:42.207Z,1.08
2023-04-12T18:01:44.579Z,1.45
2023-04-12T18:03:47.679Z,1.23
2023-04-12T18:05:50.090Z,1.40
2023-04-12T18:07:52.337Z,1.30
2023-04-12T18:09:54.790Z,1.13
2023-04-12T18:11:57.617Z,1.00
2023-04-12T18:16:02.337Z,1.10
2023-04-12T18:18:04.684Z,1.48
2023-04-12T18:20:11.121Z,1.10
2023-04-12T18:22:13.498Z,1.30
2023-04-12T18:24:16.991Z,1.25
2023-04-12T18:26:19.422Z,1.05
2023-04-12T18:28:21.769Z,1.20
2023-04-12T18:30:24.102Z,1.00
2023-04-12T18:32:26.414Z,1.30
2023-04-12T18:34:28.642Z,1.27
2023-04-12T18:36:31.710Z,1.20
2023-04-12T18:38:35.571Z,1.23
2023-04-12T18:40:38.808Z,1.13
2023-04-12T18:42:41.068Z,0.90
2023-04-12T18:44:43.293Z,1.20
2023-04-12T18:46:45.549Z,1.00
2023-04-12T18:48:49.100Z,1.00
2023-04-12T18:50:51.338Z,1.10
2023-04-12T18:52:53.597Z,1.23
2023-04-12T18:54:55.885Z,1.35
2023-04-12T18:57:00.852Z,1.33
2023-04-12T18:59:03.803Z,1.05
2023-04-12T19:01:09.898Z,1.00
2023-04-12T19:03:12.203Z,1.35
2023-04-12T19:05:15.276Z,1.50
2023-04-12T19:07:17.435Z,1.55
2023-04-12T19:09:19.610Z,1.33
2023-04-12T19:11:23.267Z,1.20
2023-04-12T19:13:25.393Z,1.30
2023-04-12T19:15:27.551Z,1.30
2023-04-12T19:17:30.413Z,1.10
2023-04-12T19:19:32.568Z,1.00
2023-04-12T19:21:35.440Z,1.00
2023-04-12T19:23:38.113Z,1.20
2023-04-12T19:25:41.075Z,1.25
2023-04-12T19:27:43.236Z,1.00
2023-04-12T19:29:45.518Z,0.82
2023-04-12T19:31:49.017Z,1.00
2023-04-12T19:33:51.350Z,1.08
2023-04-12T19:35:56.212Z,0.90
2023-04-12T19:37:58.579Z,1.02
2023-04-12T19:40:00.888Z,1.35
2023-04-12T19:42:03.440Z,1.00
2023-04-12T19:44:05.929Z,1.00
2023-04-12T19:46:08.401Z,1.25
2023-04-12T19:48:11.272Z,1.02
2023-04-12T19:50:16.912Z,0.98
2023-04-12T19:52:21.354Z,1.00
2023-04-12T19:54:23.966Z,2.15
2023-04-12T19:56:26.222Z,2.15
2023-04-12T19:58:29.175Z,4.35
2023-04-12T20:00:31.765Z,1.20
2023-04-12T20:02:34.007Z,1.00
2023-04-12T20:04:36.732Z,1.00
2023-04-12T20:08:41.583Z,1.17
2023-04-12T20:10:43.793Z,1.10
2023-04-12T20:12:46.005Z,1.10
2023-04-12T20:14:48.159Z,1.65
2023-04-12T20:16:55.701Z,1.70
2023-04-12T20:18:59.028Z,1.40
2023-04-12T20:21:01.401Z,1.20
2023-04-12T20:23:03.559Z,1.70
2023-04-12T20:25:06.034Z,1.88
2023-04-12T20:27:09.400Z,1.63
2023-04-12T20:29:11.574Z,1.23
2023-04-12T20:31:14.120Z,1.73
2023-04-12T20:33:16.446Z,1.52
2023-04-12T20:35:18.792Z,1.63
2023-04-12T20:37:21.200Z,1.40
2023-04-12T20:39:23.405Z,1.42
2023-04-12T20:41:25.597Z,1.50
2023-04-12T20:43:28.188Z,1.90
2023-04-12T20:45:30.752Z,1.33
2023-04-12T20:47:34.712Z,1.40
2023-04-12T20:49:36.974Z,1.30
2023-04-12T20:51:39.949Z,1.63
2023-04-12T20:53:49.102Z,1.50
2023-04-12T20:55:51.214Z,1.40
2023-04-12T20:57:55.760Z,1.42
2023-04-12T20:59:59.376Z,1.40
2023-04-12T21:02:01.645Z,1.23
2023-04-12T21:04:06.155Z,1.40
2023-04-12T21:06:11.713Z,1.63
2023-04-12T21:08:13.841Z,1.13
2023-04-12T21:10:16.308Z,1.60
2023-04-12T21:12:19.657Z,1.33
2023-04-12T21:14:21.825Z,1.60
2023-04-12T21:16:24.967Z,1.23
2023-04-12T21:18:28.213Z,0.90
2023-04-12T21:20:30.534Z,0.90
2023-04-12T21:22:32.677Z,1.00
2023-04-12T21:24:38.570Z,1.00
2023-04-12T21:26:40.891Z,0.77
2023-04-12T21:28:43.043Z,1.00
2023-04-12T21:30:46.278Z,0.90
2023-04-12T21:32:48.549Z,0.70
2023-04-12T21:34:51.140Z,0.88
2023-04-12T21:36:55.193Z,1.20
2023-04-12T21:38:59.643Z,0.98
2023-04-12T21:41:09.834Z,1.10
2023-04-12T21:43:11.988Z,0.80
2023-04-12T21:45:14.491Z,0.88
2023-04-12T21:47:16.642Z,0.75
2023-04-12T21:49:18.856Z,0.60
2023-04-12T21:51:21.161Z,0.80
2023-04-12T21:53:23.301Z,0.85
2023-04-12T21:55:28.332Z,1.00
2023-04-12T21:57:31.180Z,0.98
2023-04-12T21:59:33.350Z,0.93
2023-04-12T22:01:36.018Z,0.82
2023-04-12T22:05:41.122Z,1.00
2023-04-12T22:07:43.316Z,0.82
2023-04-12T22:09:46.182Z,1.00
2023-04-12T22:11:49.116Z,0.80
2023-04-12T22:13:51.322Z,0.80
2023-04-12T22:15:53.521Z,0.98
2023-04-12T22:17:55.761Z,0.93
2023-04-12T22:19:58.816Z,0.93
2023-04-12T22:22:01.595Z,0.80
2023-04-12T22:26:06.909Z,0.90
2023-04-12T22:28:11.588Z,0.93
2023-04-12T22:30:13.823Z,0.90
2023-04-12T22:32:16.269Z,0.82
2023-04-12T22:34:18.490Z,1.10
2023-04-12T22:36:20.661Z,0.82
2023-04-12T22:38:22.820Z,0.90
2023-04-12T22:40:24.999Z,0.85
2023-04-12T22:42:29.886Z,0.80
2023-04-12T22:44:37.998Z,0.70
2023-04-12T22:46:43.748Z,0.70
2023-04-12T22:48:47.698Z,0.90
2023-04-12T22:50:49.837Z,1.05
2023-04-12T22:52:54.458Z,1.25
2023-04-12T22:54:56.784Z,1.48
2023-04-12T22:56:58.957Z,1.35
2023-04-12T22:59:01.111Z,1.30
2023-04-12T23:01:04.203Z,1.20
2023-04-12T23:03:10.714Z,1.13
2023-04-12T23:05:13.957Z,1.00
2023-04-12T23:07:16.563Z,1.10
2023-04-12T23:09:19.736Z,0.90
2023-04-12T23:11:22.120Z,1.08
2023-04-12T23:13:24.277Z,1.50
2023-04-12T23:15:26.437Z,1.13
2023-04-12T23:17:29.367Z,1.17
2023-04-12T23:19:33.143Z,1.20
2023-04-12T23:21:36.216Z,1.13
2023-04-12T23:23:39.278Z,1.67
2023-04-12T23:25:41.959Z,0.95
2023-04-12T23:27:44.541Z,0.90
2023-04-12T23:29:47.945Z,1.30
2023-04-12T23:31:51.368Z,1.80
2023-04-12T23:33:54.937Z,1.58
2023-04-12T23:35:57.189Z,1.30
2023-04-12T23:38:01.543Z,1.20
2023-04-12T23:40:06.879Z,1.20
2023-04-12T23:42:09.632Z,1.40
2023-04-12T23:46:14.031Z,1.10
2023-04-12T23:48:16.624Z,1.27
2023-04-12T23:52:21.604Z,1.10
2023-04-12T23:54:24.271Z,0.88
2023-04-12T23:56:27.237Z,1.13
2023-04-12T23:58:29.398Z,1.00
